createdAt,value
2023-05-03T00:00:59.194Z,10.60
2023-05-03T00:03:32.042Z,10.80
2023-05-03T00:06:13.375Z,10.80
2023-05-03T00:08:44.458Z,10.80
2023-05-03T00:11:15.203Z,10.80
2023-05-03T00:13:46.427Z,10.60
2023-05-03T00:16:17.579Z,10.50
2023-05-03T00:18:49.422Z,10.40
2023-05-03T00:21:20.590Z,10.50
2023-05-03T00:23:51.702Z,10.50
2023-05-03T00:26:24.098Z,10.50
2023-05-03T00:28:55.404Z,10.40
2023-05-03T00:31:26.362Z,10.30
2023-05-03T00:33:57.630Z,10.30
2023-05-03T00:36:28.852Z,10.30
2023-05-03T00:38:59.823Z,10.20
2023-05-03T00:41:30.976Z,10.20
2023-05-03T00:44:01.821Z,10.10
2023-05-03T00:46:33.025Z,10.00
2023-05-03T00:49:04.303Z,10.10
2023-05-03T00:51:35.696Z,10.20
2023-05-03T00:54:07.616Z,10.10
2023-05-03T00:56:48.326Z,10.20
2023-05-03T00:59:12.863Z,10.10
2023-05-03T01:01:43.787Z,9.80
2023-05-03T01:04:14.802Z,9.80
2023-05-03T01:06:48.598Z,9.80
2023-05-03T01:09:22.822Z,9.90
2023-05-03T01:11:59.936Z,10.00
2023-05-03T01:14:34.634Z,9.80
2023-05-03T01:17:08.320Z,9.70
2023-05-03T01:19:41.918Z,9.50
2023-05-03T01:22:18.734Z,9.40
2023-05-03T01:24:52.580Z,9.70
2023-05-03T01:27:23.957Z,9.40
2023-05-03T01:29:55.041Z,9.30
2023-05-03T01:32:29.050Z,9.60
2023-05-03T01:35:03.599Z,9.50
2023-05-03T01:37:37.069Z,9.20
2023-05-03T01:40:28.195Z,9.00
2023-05-03T01:43:00.947Z,8.80
2023-05-03T01:45:32.136Z,8.60
2023-05-03T01:48:02.961Z,8.60
2023-05-03T01:50:33.606Z,8.60
2023-05-03T01:53:04.332Z,8.70
2023-05-03T01:55:35.246Z,8.90
2023-05-03T01:58:06.571Z,8.80
2023-05-03T02:00:37.954Z,9.00
2023-05-03T02:03:09.429Z,9.00
2023-05-03T02:05:40.756Z,9.00
2023-05-03T02:08:11.646Z,8.90
2023-05-03T02:10:43.706Z,9.10
2023-05-03T02:13:14.687Z,8.90
2023-05-03T02:15:46.207Z,9.10
2023-05-03T02:18:18.730Z,9.20
2023-05-03T02:20:49.542Z,9.40
2023-05-03T02:23:20.110Z,9.00
2023-05-03T02:25:50.776Z,9.00
2023-05-03T02:28:21.466Z,9.10
2023-05-03T02:30:52.408Z,9.10
2023-05-03T02:33:23.359Z,8.90
2023-05-03T02:35:54.437Z,8.90
2023-05-03T02:38:25.020Z,8.70
2023-05-03T02:40:55.622Z,8.40
2023-05-03T02:43:26.461Z,8.20
2023-05-03T02:45:57.461Z,8.00
2023-05-03T02:48:28.117Z,8.10
2023-05-03T02:50:58.783Z,8.10
2023-05-03T02:53:29.788Z,8.00
2023-05-03T02:56:00.456Z,8.20
2023-05-03T02:58:31.475Z,8.20
2023-05-03T03:01:02.149Z,8.30
2023-05-03T03:03:32.922Z,8.10
2023-05-03T03:06:03.813Z,8.20
2023-05-03T03:08:34.510Z,8.20
2023-05-03T03:11:05.876Z,8.00
2023-05-03T03:13:38.578Z,8.20
2023-05-03T03:16:10.163Z,8.10
2023-05-03T03:18:40.809Z,8.00
2023-05-03T03:21:11.992Z,7.90
2023-05-03T03:23:42.656Z,7.70
2023-05-03T03:26:13.607Z,7.70
2023-05-03T03:28:44.361Z,7.70
2023-05-03T03:31:15.188Z,7.70
2023-05-03T03:33:45.868Z,7.80
2023-05-03T03:36:16.703Z,8.00
2023-05-03T03:38:47.398Z,8.10
2023-05-03T03:41:18.180Z,8.50
2023-05-03T03:43:49.064Z,8.60
2023-05-03T03:46:20.214Z,8.60
2023-05-03T03:48:51.362Z,8.60
2023-05-03T03:51:22.096Z,8.50
2023-05-03T03:53:52.748Z,8.20
2023-05-03T03:56:23.992Z,8.10
2023-05-03T03:58:54.819Z,8.50
2023-05-03T04:01:25.642Z,8.70
2023-05-03T04:03:56.440Z,8.70
2023-05-03T04:06:29.109Z,8.80
2023-05-03T04:08:59.795Z,8.80
2023-05-03T04:11:30.397Z,8.90
2023-05-03T04:14:01.400Z,8.90
2023-05-03T04:16:32.090Z,8.60
2023-05-03T04:19:02.966Z,8.80
2023-05-03T04:21:33.606Z,9.00
2023-05-03T04:24:06.225Z,9.00
2023-05-03T04:26:37.079Z,9.10
2023-05-03T04:29:07.991Z,9.10
2023-05-03T04:31:39.065Z,9.20
2023-05-03T04:34:10.893Z,9.30
2023-05-03T04:36:42.095Z,9.40
2023-05-03T04:39:13.109Z,9.40
2023-05-03T04:41:44.004Z,9.40
2023-05-03T04:44:14.935Z,9.30
2023-05-03T04:46:46.162Z,9.30
2023-05-03T04:49:18.036Z,9.40
2023-05-03T04:51:48.867Z,9.50
2023-05-03T04:54:19.674Z,9.60
2023-05-03T04:56:50.501Z,9.60
2023-05-03T04:59:21.351Z,9.50
2023-05-03T05:01:52.332Z,9.60
2023-05-03T05:04:23.102Z,9.60
2023-05-03T05:06:55.450Z,9.60
2023-05-03T05:09:30.575Z,9.60
2023-05-03T05:12:01.977Z,9.80
2023-05-03T05:14:33.184Z,9.80
2023-05-03T05:17:04.103Z,10.00
2023-05-03T05:19:34.755Z,10.10
2023-05-03T05:22:06.102Z,10.10
2023-05-03T05:24:36.960Z,10.30
2023-05-03T05:27:07.721Z,10.30
2023-05-03T05:29:38.926Z,10.50
2023-05-03T05:32:09.757Z,10.60
2023-05-03T05:34:45.568Z,10.60
2023-05-03T05:37:13.091Z,10.60
2023-05-03T05:39:44.065Z,10.70
2023-05-03T05:42:15.256Z,10.80
2023-05-03T05:44:46.534Z,10.80
2023-05-03T05:47:17.846Z,10.90
2023-05-03T05:49:49.072Z,11.00
2023-05-03T05:52:20.327Z,11.20
2023-05-03T05:54:51.053Z,11.20
2023-05-03T05:57:21.654Z,11.40
2023-05-03T05:59:53.300Z,11.50
2023-05-03T06:02:25.249Z,11.70
2023-05-03T06:04:56.404Z,11.70
2023-05-03T06:07:27.119Z,11.80
2023-05-03T06:09:59.912Z,11.90
2023-05-03T06:12:30.789Z,11.90
2023-05-03T06:15:03.304Z,12.00
2023-05-03T06:17:34.702Z,12.10
2023-05-03T06:20:06.675Z,12.20
2023-05-03T06:22:37.993Z,12.40
2023-05-03T06:25:10.788Z,12.30
2023-05-03T06:27:42.071Z,12.40
2023-05-03T06:30:15.112Z,12.40
2023-05-03T06:32:47.799Z,12.40
2023-05-03T06:35:19.829Z,12.50
2023-05-03T06:37:51.004Z,12.70
2023-05-03T06:40:23.679Z,12.70
2023-05-03T06:42:55.541Z,12.80
2023-05-03T06:45:26.539Z,12.80
2023-05-03T06:47:57.600Z,12.80
2023-05-03T06:50:28.913Z,12.80
2023-05-03T06:52:59.977Z,12.80
2023-05-03T06:55:32.667Z,12.80
2023-05-03T06:58:03.576Z,12.80
2023-05-03T07:00:34.790Z,12.90
2023-05-03T07:03:06.048Z,13.20
2023-05-03T07:05:37.301Z,13.40
2023-05-03T07:08:08.518Z,13.20
2023-05-03T07:10:39.790Z,13.30
2023-05-03T07:13:10.752Z,13.10
2023-05-03T07:15:41.770Z,13.30
2023-05-03T07:18:13.041Z,13.50
2023-05-03T07:20:44.100Z,13.60
2023-05-03T07:23:15.684Z,13.70
2023-05-03T07:25:47.363Z,13.80
2023-05-03T07:28:19.167Z,13.80
2023-05-03T07:30:49.953Z,13.50
2023-05-03T07:33:20.714Z,13.80
2023-05-03T07:35:51.749Z,13.90
2023-05-03T07:38:22.362Z,14.60
2023-05-03T07:40:53.230Z,14.50
2023-05-03T07:43:24.551Z,14.50
2023-05-03T07:45:55.228Z,14.30
2023-05-03T07:48:26.880Z,14.70
2023-05-03T07:50:57.656Z,14.80
2023-05-03T07:53:28.271Z,15.20
2023-05-03T07:55:58.997Z,15.20
2023-05-03T07:58:40.272Z,15.00
2023-05-03T08:01:01.935Z,14.80
2023-05-03T08:03:32.906Z,14.90
2023-05-03T08:06:03.931Z,14.90
2023-05-03T08:08:36.372Z,15.20
2023-05-03T08:11:07.428Z,15.30
2023-05-03T08:13:38.077Z,15.00
2023-05-03T08:16:09.597Z,15.40
2023-05-03T08:18:40.236Z,15.40
2023-05-03T08:21:13.945Z,15.30
2023-05-03T08:23:45.182Z,15.00
2023-05-03T08:26:15.947Z,15.20
2023-05-03T08:28:46.644Z,15.20
2023-05-03T08:31:17.856Z,15.50
2023-05-03T08:33:48.694Z,15.40
2023-05-03T08:36:19.348Z,15.60
2023-05-03T08:38:51.115Z,15.90
2023-05-03T08:41:26.328Z,16.30
2023-05-03T08:43:58.005Z,16.40
2023-05-03T08:46:29.568Z,16.20
2023-05-03T08:49:02.270Z,16.30
2023-05-03T08:51:35.011Z,16.20
2023-05-03T08:54:05.802Z,16.20
2023-05-03T08:56:40.040Z,16.20
2023-05-03T08:59:11.829Z,16.40
2023-05-03T09:01:43.539Z,16.40
2023-05-03T09:04:15.336Z,16.40
2023-05-03T09:06:46.127Z,16.40
2023-05-03T09:09:16.929Z,16.40
2023-05-03T09:11:47.685Z,16.70
2023-05-03T09:17:00.024Z,16.90
2023-05-03T09:19:30.712Z,16.80
2023-05-03T09:22:05.471Z,17.30
2023-05-03T09:24:36.091Z,17.60
2023-05-03T09:27:15.513Z,17.80
2023-05-03T09:29:46.206Z,17.50
2023-05-03T09:32:17.469Z,17.30
2023-05-03T09:34:48.496Z,17.60
2023-05-03T09:37:19.308Z,17.80
2023-05-03T09:39:50.063Z,17.90
2023-05-03T09:42:21.706Z,18.30
2023-05-03T09:44:52.955Z,18.60
2023-05-03T09:47:25.127Z,18.50
2023-05-03T09:49:56.277Z,18.70
2023-05-03T09:52:28.790Z,18.50
2023-05-03T09:54:59.941Z,18.70
2023-05-03T09:57:31.022Z,19.00
2023-05-03T10:00:01.676Z,19.40
2023-05-03T10:02:35.082Z,19.30
2023-05-03T10:05:08.373Z,19.10
2023-05-03T10:07:42.132Z,19.10
2023-05-03T10:10:13.318Z,18.60
2023-05-03T10:12:44.785Z,18.60
2023-05-03T10:15:17.781Z,18.60
2023-05-03T10:17:52.049Z,19.20
2023-05-03T10:20:27.906Z,19.50
2023-05-03T10:23:11.869Z,19.70
2023-05-03T10:25:54.670Z,19.70
2023-05-03T10:28:25.477Z,19.60
2023-05-03T10:30:56.474Z,19.70
2023-05-03T10:33:35.254Z,20.00
2023-05-03T10:36:11.865Z,20.20
2023-05-03T10:38:44.088Z,20.00
2023-05-03T10:41:14.718Z,20.40
2023-05-03T10:43:46.242Z,20.80
2023-05-03T10:46:37.094Z,20.80
2023-05-03T10:49:24.491Z,20.90
2023-05-03T10:51:55.142Z,21.20
2023-05-03T10:54:25.776Z,20.50
2023-05-03T10:57:00.193Z,20.40
2023-05-03T10:59:34.165Z,20.50
2023-05-03T11:02:06.538Z,20.50
2023-05-03T11:04:41.856Z,20.20
2023-05-03T11:07:12.914Z,20.60
2023-05-03T11:09:44.548Z,21.00
2023-05-03T11:12:16.122Z,20.80
2023-05-03T11:14:46.860Z,21.00
2023-05-03T11:17:17.855Z,20.50
2023-05-03T11:19:49.651Z,21.00
2023-05-03T11:22:21.608Z,21.40
2023-05-03T11:24:52.425Z,21.30
2023-05-03T11:27:27.882Z,21.30
2023-05-03T11:29:59.547Z,21.30
2023-05-03T11:32:31.535Z,21.90
2023-05-03T11:35:05.806Z,22.30
2023-05-03T11:37:37.100Z,22.50
2023-05-03T11:40:13.672Z,20.90
2023-05-03T11:42:54.575Z,20.50
2023-05-03T11:45:27.657Z,21.30
2023-05-03T11:47:59.538Z,22.40
2023-05-03T11:50:45.542Z,22.30
2023-05-03T11:53:17.307Z,22.50
2023-05-03T11:55:49.109Z,22.60
2023-05-03T11:58:22.102Z,22.40
2023-05-03T12:00:54.268Z,23.00
2023-05-03T12:03:31.162Z,23.30
2023-05-03T12:06:00.120Z,23.20
2023-05-03T12:08:35.875Z,23.80
2023-05-03T12:11:09.500Z,23.60
2023-05-03T12:13:41.210Z,23.70
2023-05-03T12:16:15.833Z,24.10
2023-05-03T12:18:56.099Z,24.00
2023-05-03T12:21:31.536Z,24.50
2023-05-03T12:24:01.675Z,24.60
2023-05-03T12:26:33.862Z,24.60
2023-05-03T12:29:06.629Z,24.70
2023-05-03T12:31:39.504Z,25.20
2023-05-03T12:34:31.741Z,25.00
2023-05-03T12:36:43.912Z,24.80
2023-05-03T12:39:16.467Z,25.00
2023-05-03T12:44:22.396Z,25.40
2023-05-03T12:46:53.400Z,24.80
2023-05-03T12:49:24.548Z,24.40
2023-05-03T12:52:18.749Z,24.80
2023-05-03T12:54:33.481Z,25.20
2023-05-03T12:57:08.222Z,25.30
2023-05-03T12:59:41.982Z,25.40
2023-05-03T13:07:17.146Z,24.20
2023-05-03T13:12:27.576Z,25.10
2023-05-03T13:14:58.360Z,25.40
2023-05-03T13:17:30.558Z,25.40
2023-05-03T13:20:01.414Z,25.00
2023-05-03T13:22:33.278Z,25.20
2023-05-03T13:25:04.603Z,24.90
2023-05-03T13:27:35.752Z,24.30
2023-05-03T13:30:08.826Z,25.00
2023-05-03T13:32:39.647Z,25.50
2023-05-03T13:35:12.428Z,25.40
2023-05-03T13:37:43.087Z,25.40
2023-05-03T13:40:15.529Z,25.80
2023-05-03T13:42:46.249Z,24.90
2023-05-03T13:45:17.057Z,26.00
2023-05-03T13:48:10.522Z,26.60
2023-05-03T13:50:20.198Z,26.90
2023-05-03T13:52:50.833Z,26.90
2023-05-03T13:55:22.096Z,26.30
2023-05-03T13:57:52.769Z,27.00
2023-05-03T14:00:24.122Z,27.10
2023-05-03T14:02:55.761Z,26.30
2023-05-03T14:05:26.603Z,26.70
2023-05-03T14:07:57.445Z,26.60
2023-05-03T14:10:28.150Z,25.50
2023-05-03T14:13:00.559Z,26.00
2023-05-03T14:15:31.464Z,26.60
2023-05-03T14:18:04.816Z,27.30
2023-05-03T14:20:36.201Z,27.70
2023-05-03T14:23:06.992Z,27.50
2023-05-03T14:28:07.598Z,27.90
2023-05-03T14:30:38.364Z,26.60
2023-05-03T14:33:10.245Z,27.00
2023-05-03T14:35:41.672Z,26.90
2023-05-03T14:38:12.444Z,27.60
2023-05-03T14:40:44.006Z,27.20
2023-05-03T14:43:15.711Z,27.30
2023-05-03T14:45:47.252Z,27.60
2023-05-03T14:48:18.794Z,28.00
2023-05-03T14:50:52.749Z,28.10
2023-05-03T14:53:23.811Z,26.50
2023-05-03T14:55:54.607Z,27.00
2023-05-03T14:58:25.286Z,26.60
2023-05-03T15:00:56.209Z,27.40
2023-05-03T15:03:27.015Z,27.90
2023-05-03T15:05:57.646Z,28.10
2023-05-03T15:08:29.015Z,27.90
2023-05-03T15:10:59.741Z,27.40
2023-05-03T15:13:30.594Z,27.50
2023-05-03T15:16:01.396Z,27.10
2023-05-03T15:18:32.301Z,27.20
2023-05-03T15:21:03.539Z,27.30
2023-05-03T15:23:34.244Z,27.00
2023-05-03T15:26:05.220Z,27.40
2023-05-03T15:28:35.881Z,27.20
2023-05-03T15:31:07.070Z,27.80
2023-05-03T15:33:42.816Z,26.60
2023-05-03T15:36:14.679Z,26.90
2023-05-03T15:38:45.290Z,26.40
2023-05-03T15:41:16.178Z,26.80
2023-05-03T15:43:47.531Z,27.00
2023-05-03T15:46:18.466Z,26.30
2023-05-03T15:48:49.338Z,26.50
2023-05-03T15:51:20.697Z,26.80
2023-05-03T15:53:53.147Z,26.90
2023-05-03T15:56:23.904Z,26.40
2023-05-03T15:58:54.472Z,25.40
2023-05-03T16:01:25.324Z,25.40
2023-05-03T16:03:56.408Z,24.50
2023-05-03T16:06:28.528Z,24.50
2023-05-03T16:08:59.226Z,24.40
2023-05-03T16:11:30.038Z,23.80
2023-05-03T16:14:00.965Z,23.20
2023-05-03T16:16:31.669Z,22.90
2023-05-03T16:19:02.246Z,22.90
2023-05-03T16:21:33.158Z,22.70
2023-05-03T16:24:04.971Z,22.80
2023-05-03T16:26:36.265Z,22.60
2023-05-03T16:29:07.055Z,22.50
2023-05-03T16:31:37.880Z,22.40
2023-05-03T16:34:08.983Z,22.30
2023-05-03T16:36:42.154Z,22.00
2023-05-03T16:39:13.694Z,22.30
2023-05-03T16:41:44.535Z,22.40
2023-05-03T16:44:16.702Z,22.50
2023-05-03T16:46:48.037Z,22.10
2023-05-03T16:49:19.338Z,21.60
2023-05-03T16:51:50.169Z,21.50
2023-05-03T16:54:20.817Z,21.40
2023-05-03T16:56:54.945Z,21.30
2023-05-03T16:59:26.074Z,21.00
2023-05-03T17:01:56.864Z,20.90
2023-05-03T17:04:28.772Z,20.70
2023-05-03T17:06:59.439Z,20.80
2023-05-03T17:09:30.137Z,20.80
2023-05-03T17:12:03.525Z,20.70
2023-05-03T17:14:34.590Z,20.70
2023-05-03T17:17:05.182Z,20.50
2023-05-03T17:19:35.896Z,20.50
2023-05-03T17:22:08.009Z,20.50
2023-05-03T17:24:38.971Z,20.80
2023-05-03T17:27:11.334Z,20.70
2023-05-03T17:29:42.337Z,20.70
2023-05-03T17:32:13.012Z,20.60
2023-05-03T17:34:43.715Z,20.50
2023-05-03T17:37:14.374Z,20.20
2023-05-03T17:39:45.236Z,20.10
2023-05-03T17:42:16.061Z,20.10
2023-05-03T17:44:47.240Z,20.10
2023-05-03T17:47:17.944Z,20.00
2023-05-03T17:49:48.605Z,20.00
2023-05-03T17:52:20.250Z,19.90
2023-05-03T17:54:52.341Z,19.90
2023-05-03T17:57:22.990Z,19.70
2023-05-03T17:59:53.631Z,19.70
2023-05-03T18:02:24.377Z,19.70
2023-05-03T18:04:56.828Z,19.60
2023-05-03T18:07:27.756Z,19.50
2023-05-03T18:09:59.942Z,19.40
2023-05-03T18:12:31.249Z,19.30
2023-05-03T18:15:02.194Z,19.10
2023-05-03T18:17:32.983Z,19.10
2023-05-03T18:20:05.933Z,19.00
2023-05-03T18:22:37.713Z,18.90
2023-05-03T18:25:10.690Z,18.70
2023-05-03T18:27:41.344Z,18.60
2023-05-03T18:30:14.666Z,18.50
2023-05-03T18:32:46.419Z,18.40
2023-05-03T18:35:17.054Z,18.20
2023-05-03T18:37:47.758Z,18.00
2023-05-03T18:40:19.003Z,17.70
2023-05-03T18:42:49.734Z,17.50
2023-05-03T18:45:20.601Z,17.40
2023-05-03T18:47:51.870Z,17.20
2023-05-03T18:50:22.902Z,17.00
2023-05-03T18:52:53.594Z,16.90
2023-05-03T18:55:25.784Z,16.80
2023-05-03T18:57:56.340Z,16.70
2023-05-03T19:00:27.205Z,16.70
2023-05-03T19:02:57.992Z,16.60
2023-05-03T19:05:28.812Z,16.50
2023-05-03T19:07:59.970Z,16.40
2023-05-03T19:10:30.724Z,16.30
2023-05-03T19:13:03.140Z,16.40
2023-05-03T19:15:33.962Z,16.50
2023-05-03T19:18:04.714Z,16.50
2023-05-03T19:20:35.594Z,16.20
2023-05-03T19:23:06.534Z,16.00
2023-05-03T19:25:37.209Z,15.80
2023-05-03T19:28:08.176Z,15.70
2023-05-03T19:30:40.419Z,15.70
2023-05-03T19:33:11.180Z,15.80
2023-05-03T19:35:42.298Z,16.00
2023-05-03T19:38:13.011Z,16.00
2023-05-03T19:40:44.275Z,15.90
2023-05-03T19:43:14.914Z,15.80
2023-05-03T19:45:45.655Z,15.80
2023-05-03T19:48:17.972Z,15.80
2023-05-03T19:50:48.642Z,15.70
2023-05-03T19:53:19.510Z,15.60
2023-05-03T19:55:58.341Z,15.50
2023-05-03T19:58:30.068Z,15.50
2023-05-03T20:01:00.894Z,15.50
2023-05-03T20:03:31.666Z,15.30
2023-05-03T20:08:40.429Z,15.10
2023-05-03T20:11:11.164Z,15.00
2023-05-03T20:13:41.790Z,15.00
2023-05-03T20:16:12.852Z,14.80
2023-05-03T20:18:43.938Z,14.70
2023-05-03T20:21:14.889Z,14.70
2023-05-03T20:23:45.562Z,14.70
2023-05-03T20:26:16.506Z,14.90
2023-05-03T20:28:47.292Z,14.70
2023-05-03T20:31:18.224Z,14.30
2023-05-03T20:33:48.912Z,14.00
2023-05-03T20:36:19.476Z,14.90
2023-05-03T20:38:50.193Z,14.70
2023-05-03T20:41:20.838Z,14.50
2023-05-03T20:43:53.595Z,14.50
2023-05-03T20:46:24.254Z,14.60
2023-05-03T20:48:54.885Z,14.50
2023-05-03T20:51:25.691Z,14.30
2023-05-03T20:53:56.477Z,14.30
2023-05-03T20:56:27.337Z,14.40
2023-05-03T20:58:57.938Z,14.60
2023-05-03T21:01:28.676Z,14.80
2023-05-03T21:03:59.561Z,15.00
2023-05-03T21:06:30.165Z,15.00
2023-05-03T21:09:00.785Z,15.00
2023-05-03T21:11:31.476Z,15.00
2023-05-03T21:14:02.271Z,15.00
2023-05-03T21:16:33.149Z,15.00
2023-05-03T21:19:04.032Z,15.00
2023-05-03T21:21:34.742Z,15.00
2023-05-03T21:24:05.981Z,15.00
2023-05-03T21:26:37.102Z,15.00
2023-05-03T21:29:07.802Z,15.00
2023-05-03T21:31:40.337Z,14.90
2023-05-03T21:34:11.138Z,14.90
2023-05-03T21:36:41.816Z,14.90
2023-05-03T21:39:12.387Z,14.90
2023-05-03T21:41:44.736Z,14.80
2023-05-03T21:44:15.808Z,14.70
2023-05-03T21:46:46.476Z,14.70
2023-05-03T21:49:17.586Z,14.60
2023-05-03T21:51:48.227Z,14.40
2023-05-03T21:54:19.412Z,14.30
2023-05-03T21:56:50.493Z,13.90
2023-05-03T21:59:21.459Z,14.00
2023-05-03T22:01:52.271Z,13.90
2023-05-03T22:04:23.005Z,13.90
2023-05-03T22:06:53.548Z,13.90
2023-05-03T22:09:24.905Z,14.00
2023-05-03T22:11:55.802Z,14.00
2023-05-03T22:14:26.569Z,14.10
2023-05-03T22:16:57.714Z,14.00
2023-05-03T22:19:30.352Z,14.00
2023-05-03T22:22:01.011Z,14.00
2023-05-03T22:24:31.610Z,13.90
2023-05-03T22:27:02.301Z,13.80
2023-05-03T22:29:33.072Z,13.90
2023-05-03T22:32:03.869Z,13.90
2023-05-03T22:34:34.837Z,13.90
2023-05-03T22:37:05.447Z,14.00
2023-05-03T22:39:36.123Z,14.00
2023-05-03T22:42:08.081Z,14.10
2023-05-03T22:44:39.122Z,14.20
2023-05-03T22:47:10.516Z,14.20
2023-05-03T22:49:41.184Z,14.10
2023-05-03T22:52:11.816Z,14.20
2023-05-03T22:54:42.441Z,14.00
2023-05-03T22:57:13.144Z,13.90
2023-05-03T22:59:46.603Z,13.80
2023-05-03T23:02:17.819Z,13.70
2023-05-03T23:04:49.070Z,13.60
2023-05-03T23:07:20.017Z,13.70
2023-05-03T23:09:51.072Z,13.70
2023-05-03T23:12:21.686Z,13.60
2023-05-03T23:14:52.465Z,13.60
2023-05-03T23:17:23.228Z,13.60
2023-05-03T23:19:53.951Z,13.40
2023-05-03T23:22:24.750Z,13.40
2023-05-03T23:24:55.365Z,13.40
2023-05-03T23:27:26.312Z,13.40
2023-05-03T23:29:57.406Z,13.20
2023-05-03T23:32:28.755Z,13.20
2023-05-03T23:34:59.833Z,13.10
2023-05-03T23:37:30.617Z,13.10
2023-05-03T23:40:02.092Z,13.10
2023-05-03T23:42:32.808Z,12.90
2023-05-03T23:45:03.537Z,13.00
2023-05-03T23:47:34.227Z,13.10
2023-05-03T23:50:05.439Z,13.00
2023-05-03T23:52:37.180Z,13.00
2023-05-03T23:55:09.490Z,13.00
2023-05-03T23:57:40.122Z,13.00
